createdAt,value
2023-03-19T00:09:58.548Z,52.10
2023-03-19T00:20:01.906Z,51.50
2023-03-19T00:30:07.376Z,42.90
2023-03-19T00:40:12.058Z,43.70
2023-03-19T00:50:16.171Z,43.80
2023-03-19T01:00:20.794Z,39.70
2023-03-19T01:10:25.057Z,38.70
2023-03-19T01:20:28.184Z,34.80
2023-03-19T01:30:31.745Z,37.30
2023-03-19T01:40:49.486Z,38.90
2023-03-19T01:50:55.547Z,38.60
2023-03-19T02:01:03.462Z,38.40
2023-03-19T02:11:09.635Z,33.20
2023-03-19T02:21:18.157Z,31.60
2023-03-19T02:31:23.316Z,30.00
2023-03-19T02:41:27.862Z,26.50
2023-03-19T02:51:31.502Z,23.30
2023-03-19T03:01:35.674Z,23.00
2023-03-19T03:11:41.260Z,26.70
2023-03-19T03:21:45.425Z,23.20
2023-03-19T03:31:48.546Z,21.50
2023-03-19T03:41:52.702Z,18.00
2023-03-19T03:51:56.271Z,20.30
2023-03-19T04:01:59.599Z,21.90
2023-03-19T04:12:05.131Z,22.70
2023-03-19T04:22:08.716Z,16.40
2023-03-19T04:32:11.919Z,14.40
2023-03-19T04:42:15.621Z,19.80
2023-03-19T04:52:31.402Z,16.10
2023-03-19T05:02:34.925Z,24.40
2023-03-19T05:12:38.848Z,17.60
2023-03-19T05:22:42.669Z,18.90
2023-03-19T05:32:47.779Z,18.40
2023-03-19T05:43:05.810Z,19.20
2023-03-19T05:53:09.715Z,18.20
2023-03-19T06:03:17.804Z,18.40
2023-03-19T06:13:24.282Z,24.70
2023-03-19T06:23:34.354Z,21.30
2023-03-19T06:33:38.802Z,23.10
2023-03-19T06:43:42.472Z,15.50
2023-03-19T06:53:45.627Z,12.40
2023-03-19T07:03:48.948Z,12.20
2023-03-19T07:13:52.749Z,10.90
2023-03-19T07:23:56.118Z,14.10
2023-03-19T07:33:59.164Z,11.60
2023-03-19T07:44:02.288Z,14.90
2023-03-19T07:54:05.465Z,14.40
2023-03-19T08:04:09.080Z,10.40
2023-03-19T08:14:12.309Z,9.40
2023-03-19T08:24:15.547Z,9.30
2023-03-19T08:34:18.577Z,8.20
2023-03-19T08:44:21.755Z,7.00
2023-03-19T08:54:24.835Z,8.90
2023-03-19T09:04:28.704Z,14.30
2023-03-19T09:14:31.944Z,11.40
2023-03-19T09:24:35.326Z,10.80
2023-03-19T09:34:40.093Z,9.20
2023-03-19T09:44:45.830Z,7.70
2023-03-19T09:54:53.984Z,7.10
2023-03-19T10:05:20.432Z,6.30
2023-03-19T10:15:32.516Z,6.50
2023-03-19T10:25:41.583Z,5.40
2023-03-19T10:35:48.890Z,5.30
2023-03-19T10:45:52.348Z,5.40
2023-03-19T10:56:03.650Z,6.30
2023-03-19T11:06:07.845Z,6.20
2023-03-19T11:16:11.522Z,6.60
2023-03-19T11:26:19.541Z,5.40
2023-03-19T11:36:54.686Z,6.80
2023-03-19T11:47:27.101Z,9.30
2023-03-19T11:58:09.882Z,6.70
2023-03-19T12:08:33.944Z,6.40
2023-03-19T12:18:37.375Z,6.30
2023-03-19T12:28:59.015Z,6.00
2023-03-19T12:39:10.688Z,6.20
2023-03-19T12:49:42.206Z,5.70
2023-03-19T12:59:59.061Z,7.50
2023-03-19T13:10:11.557Z,5.30
2023-03-19T13:20:47.131Z,6.60
2023-03-19T13:31:19.790Z,6.10
2023-03-19T13:41:35.095Z,5.30
2023-03-19T13:51:39.881Z,5.10
2023-03-19T14:01:47.723Z,5.30
2023-03-19T14:11:52.226Z,5.20
2023-03-19T14:21:56.003Z,11.40
2023-03-19T14:32:07.352Z,15.20
2023-03-19T14:42:29.622Z,10.10
2023-03-19T14:52:36.874Z,12.50
2023-03-19T15:02:44.562Z,10.70
2023-03-19T15:13:25.984Z,6.80
2023-03-19T15:23:31.256Z,9.50
2023-03-19T15:33:41.554Z,8.40
2023-03-19T15:43:47.527Z,9.20
2023-03-19T15:53:52.276Z,7.40
2023-03-19T16:03:57.944Z,6.90
2023-03-19T16:14:09.587Z,15.50
2023-03-19T16:24:31.424Z,9.10
2023-03-19T16:34:43.777Z,17.40
2023-03-19T16:44:47.860Z,14.60
2023-03-19T16:54:52.242Z,19.80
2023-03-19T17:04:56.543Z,22.20
2023-03-19T17:14:59.748Z,28.50
2023-03-19T17:25:02.856Z,33.90
2023-03-19T17:35:15.091Z,30.60
2023-03-19T17:45:25.301Z,30.90
2023-03-19T17:55:29.894Z,34.40
2023-03-19T18:05:33.059Z,35.10
2023-03-19T18:15:38.128Z,34.10
2023-03-19T18:25:41.288Z,31.40
2023-03-19T18:35:45.895Z,37.60
2023-03-19T18:45:52.985Z,32.40
2023-03-19T18:55:57.508Z,30.60
2023-03-19T19:06:00.689Z,39.00
2023-03-19T19:16:06.061Z,45.70
2023-03-19T19:26:22.210Z,41.80
2023-03-19T19:36:25.933Z,43.40
2023-03-19T19:46:31.885Z,48.00
2023-03-19T19:56:35.227Z,50.70
2023-03-19T20:06:38.785Z,43.00
2023-03-19T20:16:42.176Z,49.90
2023-03-19T20:26:45.776Z,48.00
2023-03-19T20:36:48.896Z,63.50
2023-03-19T20:46:52.604Z,49.60
2023-03-19T20:56:56.411Z,49.40
2023-03-19T21:06:59.630Z,44.50
2023-03-19T21:17:03.854Z,49.10
2023-03-19T21:27:17.976Z,48.20
2023-03-19T21:37:21.319Z,49.00
2023-03-19T21:47:26.135Z,44.00
2023-03-19T21:57:29.263Z,51.90
2023-03-19T22:07:32.519Z,42.80
2023-03-19T22:17:35.773Z,67.10
2023-03-19T22:27:41.133Z,42.90
2023-03-19T22:37:44.952Z,41.30
2023-03-19T22:47:48.212Z,38.30
2023-03-19T22:57:51.723Z,37.70
2023-03-19T23:07:55.916Z,36.30
2023-03-19T23:18:00.187Z,32.60
2023-03-19T23:28:03.261Z,32.10
2023-03-19T23:38:07.120Z,26.80
2023-03-19T23:48:21.954Z,25.40
2023-03-19T23:58:40.171Z,26.80
